Time;durP1;ratioP1;P1;durP2;ratioP2;P2;SDS_P1;SDS_P2;PMS_P1;PMS_P2;Temp;Humidity;BMP_temperature;BMP_pressure;BME280_temperature;BME280_humidity;BME280_pressure;Samples;Min_cycle;Max_cycle;Signal;HPM_P1;HPM_P2
2023/02/16 00:01:53;;;;;;;7.20;5.60;;;;;;;17.14;49.98;102357.44;6251879;22;19999;-87
2023/02/16 00:04:22;;;;;;;7.65;5.65;;;;;;;17.13;49.70;102349.59;6252017;22;20011;-87
2023/02/16 00:06:48;;;;;;;6.60;6.00;;;;;;;17.13;49.60;102347.88;6279398;22;20000;-89
2023/02/16 00:09:14;;;;;;;7.00;5.95;;;;;;;17.12;49.64;102348.72;6251580;22;20550;-90
2023/02/16 00:14:25;;;;;;;6.95;5.88;;;;;;;17.11;49.58;102353.91;6255800;22;20454;-88
2023/02/16 00:16:52;;;;;;;6.75;5.85;;;;;;;17.10;49.33;102347.81;6251795;22;20004;-88
2023/02/16 00:19:24;;;;;;;5.88;5.28;;;;;;;17.12;49.57;102345.25;6226480;22;20003;-87
2023/02/16 00:21:53;;;;;;;7.18;5.82;;;;;;;17.11;49.65;102349.56;6251364;22;20057;-88
2023/02/16 00:24:19;;;;;;;6.70;6.07;;;;;;;17.11;49.41;102348.69;6251484;22;20446;-88
2023/02/16 00:26:45;;;;;;;6.22;5.60;;;;;;;17.10;49.46;102355.63;6226841;22;20090;-89
2023/02/16 00:29:33;;;;;;;7.80;5.70;;;;;;;17.10;49.68;102350.44;6251748;22;20030;-88
2023/02/16 00:32:00;;;;;;;6.65;5.90;;;;;;;17.10;49.64;102352.16;6251696;22;20003;-89
2023/02/16 00:34:36;;;;;;;6.13;5.53;;;;;;;17.10;49.63;102354.75;6251373;22;19999;-89
2023/02/16 00:37:07;;;;;;;6.78;5.93;;;;;;;17.09;49.51;102345.19;6227008;22;20008;-88
2023/02/16 00:39:34;;;;;;;6.72;5.80;;;;;;;17.09;49.54;102350.41;6251866;22;20035;-88
2023/02/16 00:42:03;;;;;;;6.35;5.47;;;;;;;17.09;49.58;102353.00;6227697;22;19999;-89
2023/02/16 00:44:31;;;;;;;6.85;5.80;;;;;;;17.07;49.62;102339.97;6253593;22;20011;-89
2023/02/16 00:47:02;;;;;;;7.20;5.90;;;;;;;17.08;49.54;102333.06;6253686;22;20340;-88
2023/02/16 00:49:27;;;;;;;7.80;6.10;;;;;;;17.07;49.39;102329.56;6281405;22;20008;-87
2023/02/16 00:51:52;;;;;;;6.75;5.95;;;;;;;17.08;49.45;102327.84;6250005;22;19999;-86
2023/02/16 00:54:18;;;;;;;7.25;6.25;;;;;;;17.06;49.25;102333.88;6251615;22;20008;-88
2023/02/16 00:56:44;;;;;;;7.10;5.60;;;;;;;17.06;49.40;102338.22;6299497;22;20000;-88
2023/02/16 00:59:17;;;;;;;6.32;5.50;;;;;;;17.05;49.55;102334.75;6243517;22;20000;-88
2023/02/16 01:01:42;;;;;;;6.00;5.35;;;;;;;17.05;49.48;102339.94;6253038;22;20305;-88
2023/02/16 01:04:16;;;;;;;7.45;5.63;;;;;;;17.05;49.34;102332.16;6253277;22;20003;-88
2023/02/16 01:12:13;;;;;;;;;;;;;;;17.04;49.25;102330.38;6235797;22;20026;-87
2023/02/16 01:14:38;;;;;;;6.93;5.93;;;;;;;17.04;49.40;102329.50;6252141;22;19903;-88
2023/02/16 01:17:04;;;;;;;6.70;5.45;;;;;;;17.03;49.43;102326.03;6227036;22;20459;-89
2023/02/16 01:19:29;;;;;;;7.93;5.85;;;;;;;17.03;49.63;102333.84;6201822;22;20022;-88
2023/02/16 01:21:55;;;;;;;7.68;6.00;;;;;;;17.04;49.34;102332.13;6226536;22;20325;-86
2023/02/16 01:24:20;;;;;;;6.78;5.90;;;;;;;17.04;49.29;102334.72;6201384;22;20454;-87
2023/02/16 01:26:48;;;;;;;7.95;6.25;;;;;;;17.02;49.54;102334.69;6225981;22;20010;-87
2023/02/16 01:29:19;;;;;;;6.82;5.55;;;;;;;17.01;49.00;102330.34;6251017;22;20331;-85
2023/02/16 01:31:45;;;;;;;6.85;6.00;;;;;;;17.02;49.37;102328.59;6250824;22;20034;-86
2023/02/16 01:34:11;;;;;;;6.72;5.93;;;;;;;17.02;49.32;102319.06;6278263;22;20004;-85
2023/02/16 01:36:40;;;;;;;6.55;5.85;;;;;;;17.02;49.23;102331.22;6252385;22;20011;-86
2023/02/16 01:39:06;;;;;;;6.70;6.00;;;;;;;17.02;49.22;102326.00;6252462;22;20428;-86
2023/02/16 01:41:58;;;;;;;7.70;6.05;;;;;;;17.02;49.24;102321.69;6252688;22;20012;-85
2023/02/16 01:44:27;;;;;;;6.63;5.93;;;;;;;17.01;49.25;102319.06;6252733;22;20447;-86
2023/02/16 01:47:01;;;;;;;6.93;6.22;;;;;;;17.02;49.27;102324.28;6227404;22;20458;-86
2023/02/16 01:49:27;;;;;;;6.32;5.72;;;;;;;17.01;49.18;102319.06;6280206;22;20065;-84
2023/02/16 01:52:05;;;;;;;6.68;5.97;;;;;;;17.02;49.14;102316.47;6227795;22;20424;-88
2023/02/16 01:54:40;;;;;;;7.45;6.45;;;;;;;17.00;49.13;102307.78;6279967;22;20424;-87
2023/02/16 01:57:29;;;;;;;6.70;5.97;;;;;;;17.01;49.29;102309.53;6253008;22;20023;-87
2023/02/16 01:59:54;;;;;;;7.45;6.20;;;;;;;17.01;49.07;102312.13;6252717;22;20003;-87
2023/02/16 02:02:26;;;;;;;7.93;6.15;;;;;;;17.01;49.02;102298.28;6252664;22;20011;-87
2023/02/16 02:08:27;;;;;;;9.10;6.10;;;;;;;17.01;49.10;102298.28;6280168;22;20500;-87
2023/02/16 02:11:06;;;;;;;6.03;5.43;;;;;;;17.02;49.19;102297.41;6252721;22;20011;-86
2023/02/16 02:13:43;;;;;;;6.20;5.60;;;;;;;17.00;49.13;102299.97;6253094;22;20011;-88
2023/02/16 02:16:09;;;;;;;7.25;6.10;;;;;;;16.99;49.09;102290.44;6253065;22;20112;-88
2023/02/16 02:18:35;;;;;;;8.63;6.20;;;;;;;16.99;49.16;102290.44;6227272;22;20428;-87
2023/02/16 02:24:06;;;;;;;6.18;5.57;;;;;;;17.00;49.08;102286.09;6280015;22;20125;-88
2023/02/16 02:26:53;;;;;;;6.65;5.95;;;;;;;16.99;49.19;102287.84;6279831;22;20004;-87
2023/02/16 02:29:24;;;;;;;6.75;5.88;;;;;;;16.99;49.13;102285.22;6252446;22;20038;-85
2023/02/16 02:32:06;;;;;;;7.88;6.25;;;;;;;16.98;49.18;102275.66;6252551;22;20018;-87
2023/02/16 02:34:55;;;;;;;7.53;5.95;;;;;;;16.98;49.10;102273.06;6253181;22;20004;-87
2023/02/16 02:37:38;;;;;;;7.18;6.18;;;;;;;16.98;49.34;102270.47;6253089;22;19999;-88
2023/02/16 02:40:14;;;;;;;6.70;6.00;;;;;;;16.98;49.14;102269.59;6252531;22;20012;-87
2023/02/16 02:43:10;;;;;;;7.07;6.20;;;;;;;16.98;49.09;102262.66;6252622;22;20031;-87
2023/02/16 02:45:46;;;;;;;7.03;5.78;;;;;;;16.98;49.12;102265.25;6252109;22;20023;-88
2023/02/16 02:48:11;;;;;;;9.13;6.60;;;;;;;16.97;49.05;102257.47;6251712;22;20004;-83
2023/02/16 02:50:40;;;;;;;6.97;6.10;;;;;;;16.96;49.26;102254.00;6201587;22;20004;-84
2023/02/16 02:53:13;;;;;;;6.32;5.55;;;;;;;16.97;49.06;102260.06;6251894;22;20010;-86
2023/02/16 03:01:19;;;;;;;6.68;5.60;;;;;;;16.97;49.14;102265.25;6279463;22;20091;-88
2023/02/16 03:03:50;;;;;;;6.97;5.82;;;;;;;16.97;49.17;102262.66;6252614;22;20054;-88
2023/02/16 03:06:34;;;;;;;6.88;5.80;;;;;;;16.96;49.36;102260.88;6279598;22;19999;-89
2023/02/16 03:09:05;;;;;;;10.68;5.85;;;;;;;16.96;49.37;102258.28;6252966;22;20012;-89
2023/02/16 03:14:29;;;;;;;;;;;;;;;16.98;49.34;102254.00;6280127;22;20088;-90
2023/02/16 03:30:51;;;;;;;6.05;5.30;;;;;;;16.98;49.30;102235.78;6279202;22;20489;-88
2023/02/16 03:33:17;;;;;;;6.93;6.10;;;;;;;16.99;49.36;102243.63;6202134;22;20031;-87
2023/02/16 03:35:44;;;;;;;6.20;5.60;;;;;;;16.98;49.44;102249.66;6252000;22;20000;-88
2023/02/16 03:38:09;;;;;;;5.85;5.05;;;;;;;16.98;49.54;102249.66;6227010;22;20079;-89
2023/02/16 03:40:39;;;;;;;5.97;5.30;;;;;;;16.99;49.52;102251.44;6252478;22;20023;-87
2023/02/16 03:43:06;;;;;;;6.55;5.78;;;;;;;17.00;49.42;102253.16;6228005;22;20361;-88
2023/02/16 03:45:36;;;;;;;6.95;5.55;;;;;;;17.00;49.28;102244.50;6262684;22;20065;-87
2023/02/16 03:48:02;;;;;;;6.65;5.70;;;;;;;17.00;49.63;102247.09;6241887;22;20022;-87
2023/02/16 03:50:27;;;;;;;5.75;5.15;;;;;;;17.00;49.40;102247.09;6251366;22;20022;-87
2023/02/16 03:53:05;;;;;;;6.20;5.60;;;;;;;16.99;49.56;102243.63;6224821;22;20012;-88
2023/02/16 03:55:42;;;;;;;5.68;5.03;;;;;;;17.00;49.48;102250.56;6249521;22;20067;-88
2023/02/16 03:58:09;;;;;;;6.10;5.30;;;;;;;17.00;49.60;102258.34;6280477;22;19996;-88
2023/02/16 04:00:35;;;;;;;6.53;4.80;;;;;;;17.01;49.63;102251.47;6227764;22;20011;-88
2023/02/16 04:03:02;;;;;;;5.68;4.90;;;;;;;17.02;49.68;102256.66;6252459;22;20087;-88
2023/02/16 04:05:28;;;;;;;6.15;5.20;;;;;;;17.02;49.47;102248.84;6252186;22;20007;-88
2023/02/16 04:07:53;;;;;;;5.57;5.00;;;;;;;17.01;49.73;102248.84;6227184;22;20424;-87
2023/02/16 04:10:19;;;;;;;5.82;5.00;;;;;;;17.01;49.55;102247.13;6251956;22;20004;-88
2023/02/16 04:12:45;;;;;;;6.00;5.00;;;;;;;17.01;49.46;102254.06;6252342;22;20031;-88
2023/02/16 04:15:14;;;;;;;5.80;4.95;;;;;;;17.01;49.62;102243.66;6226603;22;20008;-88
2023/02/16 04:17:40;;;;;;;5.57;4.75;;;;;;;17.01;49.80;102244.53;6252410;22;20002;-88
2023/02/16 04:20:07;;;;;;;5.60;5.00;;;;;;;17.01;49.70;102261.84;6226973;22;20035;-88
2023/02/16 04:22:33;;;;;;;5.95;4.95;;;;;;;17.00;49.73;102250.56;6251803;22;20069;-89
2023/02/16 04:24:58;;;;;;;6.15;5.10;;;;;;;17.00;49.71;102255.75;6226922;22;20011;-88
2023/02/16 04:27:24;;;;;;;6.38;5.20;;;;;;;17.00;49.80;102247.97;6226995;22;20004;-89
2023/02/16 04:29:49;;;;;;;4.95;4.45;;;;;;;16.99;49.95;102247.97;6227101;22;20011;-89
2023/02/16 04:32:15;;;;;;;6.45;5.40;;;;;;;16.98;49.76;102241.84;6226896;22;20095;-89
2023/02/16 04:34:40;;;;;;;5.75;5.15;;;;;;;16.98;49.79;102241.84;6252078;22;20420;-88
2023/02/16 04:37:06;;;;;;;5.75;4.85;;;;;;;16.98;49.79;102247.06;6201479;22;20007;-89
2023/02/16 04:39:31;;;;;;;5.65;5.05;;;;;;;16.97;49.84;102241.84;6201889;22;20011;-88
2023/02/16 04:41:57;;;;;;;5.93;5.20;;;;;;;16.96;49.76;102238.38;6203144;22;20004;-88
2023/02/16 04:44:22;;;;;;;7.10;5.30;;;;;;;16.96;49.91;102238.38;6202247;22;20093;-88
2023/02/16 04:46:48;;;;;;;6.13;5.05;;;;;;;16.96;49.71;102230.59;6201322;22;20448;-88
2023/02/16 04:49:13;;;;;;;5.50;5.00;;;;;;;16.96;49.81;102222.78;6251335;22;20011;-89
2023/02/16 04:51:38;;;;;;;5.38;4.88;;;;;;;16.97;49.60;102229.72;6251736;22;19999;-88
2023/02/16 04:54:05;;;;;;;5.53;5.00;;;;;;;16.97;49.84;102226.25;6226275;22;20018;-88
2023/02/16 04:56:30;;;;;;;5.40;4.90;;;;;;;16.96;49.84;102227.09;6251407;22;20000;-88
2023/02/16 04:58:56;;;;;;;5.75;5.10;;;;;;;16.97;49.76;102234.06;6251593;22;20015;-86
2023/02/16 05:01:23;;;;;;;6.03;5.18;;;;;;;16.97;49.88;102231.44;6226630;22;20008;-88
2023/02/16 05:03:49;;;;;;;5.93;5.30;;;;;;;16.97;49.75;102232.31;6278548;22;20004;-88
2023/02/16 05:06:15;;;;;;;5.72;5.03;;;;;;;16.97;49.76;102228.84;6226096;22;20057;-89
2023/02/16 05:08:41;;;;;;;5.70;4.85;;;;;;;16.96;49.78;102224.47;6251619;22;20047;-89
2023/02/16 05:16:34;;;;;;;6.68;5.38;;;;;;;16.97;49.91;102227.13;6259025;22;20021;-88
2023/02/16 05:19:00;;;;;;;6.10;5.50;;;;;;;16.98;49.85;102233.19;6204494;22;20086;-87
2023/02/16 05:21:31;;;;;;;5.95;5.15;;;;;;;16.98;49.72;102227.97;6204452;22;20090;-88
2023/02/16 05:24:03;;;;;;;5.57;4.97;;;;;;;16.98;49.71;102226.25;6255990;22;20054;-88
2023/02/16 05:26:28;;;;;;;6.63;5.30;;;;;;;16.98;49.72;102223.66;6281541;22;19995;-87
2023/02/16 05:28:54;;;;;;;5.15;4.65;;;;;;;16.98;50.08;102227.97;6204199;22;20015;-88
2023/02/16 05:31:20;;;;;;;6.15;5.28;;;;;;;16.98;49.92;102223.66;6229450;22;20008;-87
2023/02/16 05:33:46;;;;;;;6.35;5.28;;;;;;;16.98;49.66;102217.59;6254812;22;20049;-87
2023/02/16 05:36:11;;;;;;;6.70;5.40;;;;;;;16.98;49.81;102214.97;6229573;22;20004;-88
2023/02/16 05:38:37;;;;;;;5.80;5.20;;;;;;;17.00;49.90;102223.69;6229686;22;20008;-87
2023/02/16 05:41:02;;;;;;;6.75;5.72;;;;;;;16.99;49.78;102227.16;6229464;22;20090;-82
2023/02/16 05:43:28;;;;;;;6.22;5.63;;;;;;;16.99;49.96;102232.34;6204009;22;20012;-88
2023/02/16 05:45:53;;;;;;;5.80;5.13;;;;;;;16.98;49.84;102226.25;6225704;23;20452;-89
2023/02/16 05:48:19;;;;;;;5.65;5.15;;;;;;;16.99;49.90;102232.34;6199045;23;20016;-89
2023/02/16 05:50:45;;;;;;;5.70;4.82;;;;;;;16.99;49.84;102232.34;6198846;23;20016;-87
2023/02/16 05:53:10;;;;;;;6.18;5.00;;;;;;;16.99;49.84;102232.34;6174090;23;20380;-86
2023/02/16 05:55:35;;;;;;;5.80;5.07;;;;;;;16.97;49.92;102227.13;6174308;23;20090;-88
2023/02/16 05:58:01;;;;;;;5.55;5.03;;;;;;;16.99;49.92;102227.16;6223828;23;20420;-81
2023/02/16 06:00:27;;;;;;;6.80;5.20;;;;;;;16.99;49.89;102229.75;6223614;23;20004;-80
2023/02/16 06:02:52;;;;;;;7.32;4.57;;;;;;;16.99;49.96;102234.94;6198042;23;20336;-82
2023/02/16 06:05:18;;;;;;;5.88;4.93;;;;;;;17.00;50.20;102232.34;6223307;23;20004;-81
2023/02/16 06:07:44;;;;;;;7.18;5.38;;;;;;;16.99;49.99;102221.94;6198950;23;20001;-89
2023/02/16 06:10:10;;;;;;;7.72;5.35;;;;;;;17.00;50.01;102219.34;6199595;23;20018;-89
2023/02/16 06:12:35;;;;;;;5.85;5.25;;;;;;;17.00;50.05;102219.34;6199911;23;20336;-90
2023/02/16 06:15:01;;;;;;;6.78;5.13;;;;;;;17.00;49.88;102229.75;6224608;23;20451;-87
2023/02/16 06:17:27;;;;;;;8.65;5.20;;;;;;;17.00;50.15;102227.16;6175013;23;20473;-89
2023/02/16 06:19:53;;;;;;;6.65;5.60;;;;;;;17.01;50.13;102230.66;6199711;23;20008;-87
2023/02/16 06:22:18;;;;;;;6.65;5.30;;;;;;;17.01;50.13;102228.91;6222258;23;20031;-91
2023/02/16 06:24:44;;;;;;;5.60;5.03;;;;;;;17.01;50.30;102228.06;6198287;23;20004;-89
2023/02/16 06:27:09;;;;;;;6.45;5.00;;;;;;;17.01;50.27;102226.31;6199768;23;20027;-89
2023/02/16 06:29:34;;;;;;;6.43;5.07;;;;;;;17.01;50.09;102226.31;6202457;23;20031;-88
2023/02/16 06:32:00;;;;;;;9.40;5.10;;;;;;;17.02;50.28;102240.19;6194866;23;19996;-91
2023/02/16 06:34:25;;;;;;;10.25;5.15;;;;;;;17.02;50.40;102237.59;6196199;23;19996;-89
2023/02/16 06:36:51;;;;;;;5.40;4.90;;;;;;;17.02;50.51;102246.25;6221102;23;20010;-88
2023/02/16 06:39:16;;;;;;;7.82;5.38;;;;;;;17.02;50.35;102238.47;6193635;23;20494;-82
2023/02/16 06:41:41;;;;;;;6.10;4.85;;;;;;;17.02;50.33;102238.47;6201181;23;20012;-86
2023/02/16 06:44:13;;;;;;;10.65;6.30;;;;;;;17.02;50.21;102241.06;6229238;22;20069;-81
2023/02/16 06:46:39;;;;;;;9.23;6.45;;;;;;;17.03;50.24;102244.56;6251984;22;20083;-84
2023/02/16 06:49:05;;;;;;;8.07;6.32;;;;;;;17.03;50.34;102239.34;6202282;22;20068;-84
2023/02/16 06:51:31;;;;;;;14.43;6.63;;;;;;;17.02;50.22;102243.66;6251971;22;20039;-83
2023/02/16 06:53:56;;;;;;;10.90;7.20;;;;;;;17.03;50.26;102244.56;6252107;22;20007;-84
2023/02/16 06:56:22;;;;;;;11.10;7.40;;;;;;;17.03;50.18;102242.81;6252301;22;20004;-82
2023/02/16 06:58:47;;;;;;;11.15;6.97;;;;;;;17.02;50.14;102253.19;6227481;22;20004;-88
2023/02/16 07:01:13;;;;;;;10.60;6.93;;;;;;;17.16;50.32;102248.19;6227939;22;20011;-90
2023/02/16 07:03:38;;;;;;;13.18;6.57;;;;;;;17.25;50.18;102250.94;6252390;22;20041;-87
2023/02/16 07:06:04;;;;;;;10.38;5.75;;;;;;;17.32;50.24;102251.91;6202965;22;20003;-88
2023/02/16 07:08:30;;;;;;;9.07;5.75;;;;;;;17.36;50.25;102253.69;6253427;22;20073;-89
2023/02/16 07:10:55;;;;;;;9.75;6.13;;;;;;;17.38;50.14;102246.78;6227508;22;20427;-87
2023/02/16 07:13:20;;;;;;;10.70;6.13;;;;;;;17.39;49.99;102244.19;6227398;22;20008;-90
2023/02/16 07:15:46;;;;;;;9.25;5.45;;;;;;;17.42;50.01;102248.56;6227301;22;20053;-89
2023/02/16 07:18:11;;;;;;;9.98;5.50;;;;;;;17.42;50.18;102253.75;6227644;22;20007;-89
2023/02/16 07:20:37;;;;;;;7.25;5.22;;;;;;;17.42;50.42;102254.66;6202592;22;20004;-89
2023/02/16 07:23:03;;;;;;;8.25;5.90;;;;;;;17.43;50.05;102266.81;6227182;22;20081;-89
2023/02/16 07:25:28;;;;;;;7.53;5.53;;;;;;;17.43;50.13;102259.00;6252986;22;20392;-88
2023/02/16 07:27:53;;;;;;;6.95;5.00;;;;;;;17.45;50.18;102261.63;6253314;22;20008;-89
2023/02/16 07:30:19;;;;;;;8.77;5.40;;;;;;;17.45;49.96;102259.88;6228044;22;20035;-88
2023/02/16 07:32:46;;;;;;;8.07;5.63;;;;;;;17.45;49.95;102270.31;6252654;22;20033;-88
2023/02/16 07:35:11;;;;;;;9.20;5.20;;;;;;;17.47;49.99;102273.81;6279204;22;20053;-89
2023/02/16 07:37:37;;;;;;;7.13;4.93;;;;;;;17.46;49.93;102268.56;6278260;22;20007;-88
2023/02/16 07:40:03;;;;;;;7.78;4.82;;;;;;;17.47;50.06;102272.94;6227410;22;20015;-89
2023/02/16 07:42:30;;;;;;;7.05;5.20;;;;;;;17.47;49.84;102281.59;6252583;22;20008;-90
2023/02/16 07:44:55;;;;;;;6.95;5.07;;;;;;;17.48;49.90;102280.78;6252803;22;20440;-89
2023/02/16 07:47:21;;;;;;;6.28;5.00;;;;;;;17.50;49.80;102292.91;6227738;22;20007;-90
2023/02/16 07:49:46;;;;;;;6.00;5.10;;;;;;;17.50;49.72;102290.31;6252398;22;20057;-88
2023/02/16 07:52:12;;;;;;;7.82;4.63;;;;;;;17.50;49.88;102293.78;6252506;22;20019;-88
2023/02/16 07:54:37;;;;;;;6.53;5.10;;;;;;;17.50;49.97;102296.38;6227233;22;20045;-88
2023/02/16 07:57:02;;;;;;;5.43;4.80;;;;;;;17.49;49.75;102297.25;6279555;22;20003;-89
2023/02/16 07:59:28;;;;;;;7.13;4.40;;;;;;;17.52;49.96;102293.81;6230182;22;20011;-88
2023/02/16 08:01:53;;;;;;;5.70;4.47;;;;;;;17.52;49.85;102296.41;6229771;22;20030;-88
2023/02/16 08:04:19;;;;;;;5.50;4.50;;;;;;;17.52;49.85;102294.69;6227171;22;20014;-89
2023/02/16 08:06:47;;;;;;;5.43;4.75;;;;;;;17.53;49.92;102293.84;6279313;22;20014;-89
2023/02/16 08:09:13;;;;;;;5.93;4.65;;;;;;;17.54;49.81;102305.13;6227658;22;20007;-89
2023/02/16 08:11:38;;;;;;;5.13;4.55;;;;;;;17.54;49.70;102300.78;6226994;22;20003;-88
2023/02/16 08:14:04;;;;;;;5.22;4.15;;;;;;;17.55;49.67;102304.25;6227295;22;20015;-89
2023/02/16 08:16:29;;;;;;;6.03;4.70;;;;;;;17.53;49.80;102299.06;6227608;22;20004;-89
2023/02/16 08:18:56;;;;;;;5.47;4.22;;;;;;;17.54;49.54;102300.78;6252978;22;20018;-89
2023/02/16 08:21:24;;;;;;;6.55;4.70;;;;;;;17.56;49.75;102301.69;6227291;22;20420;-89
2023/02/16 08:23:56;;;;;;;6.53;4.40;;;;;;;17.56;49.78;102295.59;6279593;22;19999;-88
2023/02/16 08:26:23;;;;;;;5.20;4.50;;;;;;;17.57;49.88;102300.84;6279195;22;20003;-88
2023/02/16 08:28:49;;;;;;;6.38;4.72;;;;;;;17.58;49.75;102296.50;6226925;22;20012;-89
2023/02/16 08:31:16;;;;;;;5.90;4.43;;;;;;;17.58;49.71;102306.91;6252156;22;20065;-89
2023/02/16 08:33:42;;;;;;;5.45;4.40;;;;;;;17.57;49.78;102300.84;6252438;22;20008;-88
2023/02/16 08:36:19;;;;;;;4.68;4.05;;;;;;;17.57;49.68;102298.25;6202096;22;20008;-90
2023/02/16 08:38:49;;;;;;;4.72;4.22;;;;;;;17.60;49.74;102298.28;6252206;22;20027;-89
2023/02/16 08:41:14;;;;;;;6.25;4.28;;;;;;;17.60;49.56;102292.19;6227088;22;20008;-89
2023/02/16 08:43:40;;;;;;;6.10;4.35;;;;;;;17.60;49.55;102277.44;6226838;22;20027;-89
2023/02/16 08:46:06;;;;;;;5.40;4.38;;;;;;;17.60;49.48;102280.06;6227077;22;19999;-89
2023/02/16 08:48:34;;;;;;;5.60;4.20;;;;;;;17.63;49.50;102294.84;6226920;22;20016;-89
2023/02/16 08:51:00;;;;;;;4.90;4.10;;;;;;;17.63;49.74;102289.63;6252122;22;20014;-90
2023/02/16 08:53:26;;;;;;;5.47;4.20;;;;;;;17.65;49.75;102275.75;6252877;22;20083;-89
2023/02/16 08:55:56;;;;;;;4.80;3.70;;;;;;;17.67;49.67;102273.19;6227148;22;20015;-89
2023/02/16 08:58:23;;;;;;;5.43;4.40;;;;;;;17.67;49.36;102274.06;6227237;22;20000;-89
2023/02/16 09:00:49;;;;;;;4.75;3.92;;;;;;;17.67;49.33;102274.06;6226786;22;20004;-89
2023/02/16 09:03:17;;;;;;;5.10;4.20;;;;;;;17.67;49.51;102273.19;6252761;22;20008;-88
2023/02/16 09:05:44;;;;;;;5.00;4.47;;;;;;;17.68;49.42;102278.44;6203208;22;20012;-90
2023/02/16 09:08:09;;;;;;;4.68;3.70;;;;;;;17.70;49.43;102273.22;6253087;22;20328;-87
2023/02/16 09:10:35;;;;;;;5.93;4.45;;;;;;;17.71;49.48;102272.38;6241255;22;20051;-89
2023/02/16 09:13:00;;;;;;;7.13;4.18;;;;;;;17.71;49.56;102272.38;6252351;22;19996;-89
2023/02/16 09:15:26;;;;;;;4.82;3.78;;;;;;;17.69;49.57;102277.56;6250561;22;20026;-89
2023/02/16 09:17:51;;;;;;;4.43;3.90;;;;;;;17.69;49.50;102279.28;6251329;22;20421;-89
2023/02/16 09:20:19;;;;;;;4.90;3.90;;;;;;;17.71;49.41;102280.19;6258423;22;20388;-89
2023/02/16 09:22:45;;;;;;;4.57;3.97;;;;;;;17.71;49.59;102279.31;6205475;22;20444;-89
2023/02/16 09:25:12;;;;;;;4.88;3.70;;;;;;;17.72;49.52;102284.53;6203609;22;20004;-89
2023/02/16 09:27:37;;;;;;;4.55;4.05;;;;;;;17.73;49.66;102283.69;6253299;22;20366;-89
2023/02/16 09:30:04;;;;;;;3.92;3.53;;;;;;;17.76;49.49;102288.94;6227537;22;20031;-88
2023/02/16 09:32:30;;;;;;;5.53;3.50;;;;;;;17.78;49.44;102291.56;6228137;22;20000;-89
2023/02/16 09:34:56;;;;;;;4.85;3.50;;;;;;;17.80;49.19;102289.84;6228325;22;20012;-89
2023/02/16 09:37:22;;;;;;;4.22;3.78;;;;;;;17.80;49.48;102295.94;6226687;22;20010;-89
2023/02/16 09:39:47;;;;;;;5.00;4.10;;;;;;;17.80;49.24;102293.31;6227056;22;20008;-89
2023/02/16 09:42:15;;;;;;;4.15;3.40;;;;;;;17.80;49.40;102295.06;6201984;22;20056;-89
2023/02/16 09:45:02;;;;;;;5.25;3.80;;;;;;;17.81;49.23;102286.38;6251928;22;20020;-89
2023/02/16 09:47:30;;;;;;;4.85;3.88;;;;;;;17.82;49.62;102285.56;6252077;22;20011;-89
2023/02/16 09:50:03;;;;;;;4.28;3.70;;;;;;;17.82;49.63;102286.44;6251976;22;20004;-90
2023/02/16 09:52:39;;;;;;;4.00;3.33;;;;;;;17.83;49.34;102292.50;6252126;22;20014;-89
2023/02/16 09:55:16;;;;;;;5.50;3.63;;;;;;;17.83;49.45;102300.31;6252099;22;20053;-89
2023/02/16 09:58:11;;;;;;;4.72;3.90;;;;;;;17.83;49.45;102290.81;6253573;22;20062;-89
2023/02/16 10:00:48;;;;;;;4.10;3.70;;;;;;;17.83;49.23;102297.72;6254339;22;20061;-89
2023/02/16 10:03:26;;;;;;;4.32;3.92;;;;;;;17.83;49.48;102285.59;6253889;22;20421;-88
2023/02/16 10:06:24;;;;;;;4.75;3.70;;;;;;;17.84;49.32;102282.13;6254060;22;20004;-89
2023/02/16 10:09:03;;;;;;;4.95;3.60;;;;;;;17.85;49.41;102288.19;6254475;22;20011;-88
2023/02/16 10:11:40;;;;;;;5.25;3.70;;;;;;;17.84;49.58;102289.94;6256358;22;20004;-88
2023/02/16 10:14:23;;;;;;;3.88;3.47;;;;;;;17.85;49.38;102293.41;6255643;22;20038;-88
2023/02/16 10:17:11;;;;;;;4.28;3.60;;;;;;;17.86;49.31;102288.22;6253905;22;20000;-88
2023/02/16 10:20:04;;;;;;;5.07;3.97;;;;;;;17.87;49.54;102292.56;6193317;22;20428;-90
2023/02/16 10:22:56;;;;;;;4.93;3.42;;;;;;;17.89;49.39;102293.47;6253330;22;20011;-89
2023/02/16 10:25:40;;;;;;;3.92;3.33;;;;;;;17.92;49.30;102289.16;6253663;22;20014;-89
2023/02/16 10:28:14;;;;;;;4.28;3.70;;;;;;;17.93;49.34;102293.53;6254311;22;20000;-87
2023/02/16 10:30:53;;;;;;;4.63;3.65;;;;;;;17.94;49.31;102287.44;6254394;22;20011;-89
2023/02/16 10:34:05;;;;;;;4.70;3.75;;;;;;;17.97;49.16;102280.53;6253609;22;20031;-89
2023/02/16 10:36:46;;;;;;;5.25;4.32;;;;;;;18.00;49.35;102277.97;6244505;22;20420;-89
2023/02/16 10:39:40;;;;;;;6.75;3.63;;;;;;;18.02;49.04;102278.00;6253808;22;20069;-89
2023/02/16 10:42:30;;;;;;;4.82;3.75;;;;;;;18.03;49.07;102278.03;6254009;22;20068;-89
2023/02/16 10:45:13;;;;;;;4.78;4.00;;;;;;;18.03;49.21;102271.91;6254224;22;20031;-89
2023/02/16 10:47:44;;;;;;;4.88;3.97;;;;;;;18.04;49.24;102271.06;6254674;22;20068;-89
2023/02/16 10:50:35;;;;;;;4.30;3.90;;;;;;;18.04;49.28;102273.69;6255203;22;20080;-89
2023/02/16 10:53:12;;;;;;;5.05;3.95;;;;;;;18.04;49.26;102265.84;6254418;22;19995;-89
2023/02/16 10:55:37;;;;;;;4.10;3.70;;;;;;;18.07;48.98;102263.28;6253966;22;20382;-89
2023/02/16 10:58:03;;;;;;;4.25;3.50;;;;;;;18.06;49.15;102274.56;6228913;22;20020;-89
2023/02/16 11:00:50;;;;;;;5.75;4.28;;;;;;;18.06;49.09;102264.16;6253750;22;20004;-88
2023/02/16 11:03:21;;;;;;;3.92;3.30;;;;;;;18.08;49.13;102270.25;6253926;22;20011;-88
2023/02/16 11:05:47;;;;;;;4.32;3.67;;;;;;;18.07;49.14;102258.06;6254461;22;20086;-88
2023/02/16 11:08:13;;;;;;;4.30;3.60;;;;;;;18.10;49.17;102271.16;6208931;22;20008;-88
2023/02/16 11:10:49;;;;;;;4.03;3.55;;;;;;;18.13;49.20;102265.09;6233077;22;20336;-88
2023/02/16 11:13:32;;;;;;;4.70;3.63;;;;;;;18.15;49.09;102258.16;6258927;22;20007;-86
2023/02/16 11:16:10;;;;;;;4.47;3.75;;;;;;;18.17;49.02;102253.84;6260406;22;20012;-88
2023/02/16 11:18:40;;;;;;;5.18;3.90;;;;;;;18.17;48.98;102257.31;6258954;22;19995;-88
2023/02/16 11:21:08;;;;;;;4.18;3.78;;;;;;;18.17;49.02;102240.81;6285034;22;20006;-88
2023/02/16 11:23:35;;;;;;;3.83;3.40;;;;;;;18.18;48.98;102237.34;6257558;22;20011;-88
2023/02/16 11:26:22;;;;;;;4.43;3.72;;;;;;;18.19;49.14;102237.38;6265434;22;20332;-89
2023/02/16 11:28:49;;;;;;;4.38;3.65;;;;;;;18.19;49.16;102233.91;6268353;22;20416;-91
2023/02/16 11:31:36;;;;;;;4.35;3.70;;;;;;;18.21;49.03;102230.44;6215400;22;20004;-88
2023/02/16 11:34:25;;;;;;;4.00;3.60;;;;;;;18.21;49.03;102235.66;6264435;22;20000;-88
2023/02/16 11:36:51;;;;;;;4.30;3.58;;;;;;;18.23;49.10;102230.47;6267336;22;20000;-89
2023/02/16 11:39:20;;;;;;;5.05;3.78;;;;;;;18.24;48.87;102226.97;6245730;22;20008;-89
2023/02/16 11:41:57;;;;;;;4.47;3.70;;;;;;;18.25;49.07;102236.56;6267033;22;20332;-88
2023/02/16 11:44:32;;;;;;;4.25;3.60;;;;;;;18.26;48.93;102228.75;6268532;22;20019;-88
2023/02/16 11:47:01;;;;;;;4.78;3.58;;;;;;;18.26;48.91;102241.78;6269660;22;20063;-89
2023/02/16 11:49:30;;;;;;;3.72;3.33;;;;;;;18.26;49.02;102233.97;6261762;22;20022;-89
2023/02/16 11:51:56;;;;;;;4.03;3.53;;;;;;;18.26;49.06;102228.75;6258830;22;20083;-89
2023/02/16 11:54:21;;;;;;;4.28;3.53;;;;;;;18.24;48.93;102217.44;6275919;22;20003;-88
2023/02/16 11:57:07;;;;;;;4.05;3.55;;;;;;;18.22;49.05;102216.53;6253399;22;20011;-88
2023/02/16 11:59:39;;;;;;;4.43;3.85;;;;;;;18.22;49.04;102213.94;6277876;22;20000;-86
2023/02/16 12:02:10;;;;;;;4.07;3.67;;;;;;;18.23;49.16;102199.19;6250249;22;20012;-88
2023/02/16 12:04:58;;;;;;;4.05;3.53;;;;;;;18.22;49.10;102190.47;6270256;22;20061;-89
2023/02/16 12:07:39;;;;;;;4.63;3.95;;;;;;;18.20;49.19;102192.19;6262195;22;20053;-87
2023/02/16 12:10:10;;;;;;;4.05;3.65;;;;;;;18.19;49.30;102200.03;6258522;22;20007;-89
2023/02/16 12:12:55;;;;;;;4.97;4.10;;;;;;;18.15;49.17;102196.50;6258322;22;20141;-88
2023/02/16 12:15:45;;;;;;;5.00;4.15;;;;;;;18.15;49.51;102193.03;6258744;22;20010;-89
2023/02/16 12:18:39;;;;;;;4.28;3.88;;;;;;;18.13;49.30;102186.94;6257535;22;20000;-88
2023/02/16 12:21:33;;;;;;;4.30;3.90;;;;;;;18.13;49.33;102185.19;6258295;22;20004;-89